Time;durP1;ratioP1;P1;durP2;ratioP2;P2;SDS_P1;SDS_P2;PMS_P1;PMS_P2;Temp;Humidity;BMP_temperature;BMP_pressure;BME280_temperature;BME280_humidity;BME280_pressure;Samples;Min_cycle;Max_cycle;Signal;HPM_P1;HPM_P2
2022/08/19 00:00:39;;;;;;;11.95;10.18;;;23.10;50.50;;;;;;5032409;28;20053;-48
2022/08/19 00:03:07;;;;;;;13.63;10.77;;;23.20;50.60;;;;;;5042956;28;20052;-48
2022/08/19 00:05:35;;;;;;;13.43;10.80;;;23.10;50.70;;;;;;5044251;28;20072;-50
2022/08/19 00:08:03;;;;;;;24.77;13.90;;;23.10;50.70;;;;;;5039986;28;20421;-48
2022/08/19 00:10:30;;;;;;;17.90;14.68;;;23.10;50.60;;;;;;5035734;28;20050;-48
2022/08/19 00:12:57;;;;;;;18.75;15.15;;;23.10;50.50;;;;;;5041945;28;21056;-52
2022/08/19 00:15:26;;;;;;;18.27;14.73;;;23.00;50.50;;;;;;5041061;28;20064;-49
2022/08/19 00:17:53;;;;;;;16.05;14.30;;;23.10;50.60;;;;;;5038316;28;20527;-51
2022/08/19 00:20:22;;;;;;;17.58;14.30;;;23.00;50.60;;;;;;5038309;28;20049;-50
2022/08/19 00:22:49;;;;;;;15.32;13.02;;;23.00;50.60;;;;;;5041620;28;20060;-48
2022/08/19 00:25:18;;;;;;;12.80;11.50;;;23.00;50.60;;;;;;5040417;28;20053;-48
2022/08/19 00:27:45;;;;;;;13.98;12.35;;;23.00;50.70;;;;;;5043267;28;20057;-52
2022/08/19 00:30:12;;;;;;;14.38;11.95;;;22.90;50.70;;;;;;5033709;28;20049;-48
2022/08/19 00:32:41;;;;;;;17.60;12.77;;;22.90;50.80;;;;;;5041209;28;20497;-52
2022/08/19 00:35:09;;;;;;;14.75;12.35;;;22.90;50.90;;;;;;5040951;28;20064;-49
2022/08/19 00:37:37;;;;;;;16.63;11.23;;;22.90;50.90;;;;;;5039975;28;20060;-46
2022/08/19 00:40:07;;;;;;;13.00;10.80;;;22.80;50.90;;;;;;5034569;28;20489;-46
2022/08/19 00:42:34;;;;;;;14.30;11.38;;;22.80;51.00;;;;;;5040453;28;20080;-50
2022/08/19 00:45:01;;;;;;;14.63;11.57;;;22.80;51.00;;;;;;5040163;28;20053;-48
2022/08/19 00:47:29;;;;;;;13.15;10.57;;;22.70;50.90;;;;;;5039181;28;20061;-47
2022/08/19 00:49:59;;;;;;;13.02;10.30;;;22.70;51.00;;;;;;5037076;28;21144;-46
2022/08/19 00:52:29;;;;;;;13.40;10.07;;;22.70;51.00;;;;;;5038266;28;20060;-48
2022/08/19 00:54:58;;;;;;;11.75;9.43;;;22.70;51.00;;;;;;5039939;28;20057;-47
2022/08/19 00:57:28;;;;;;;12.68;10.38;;;22.70;51.20;;;;;;5040962;28;20061;-50
2022/08/19 00:59:58;;;;;;;11.95;8.45;;;22.70;51.40;;;;;;5033537;28;20061;-49
2022/08/19 01:02:26;;;;;;;14.43;9.63;;;22.60;51.40;;;;;;5038322;28;20057;-53
2022/08/19 01:04:54;;;;;;;10.65;8.75;;;22.60;51.40;;;;;;5042073;28;20116;-51
2022/08/19 01:07:22;;;;;;;11.70;9.55;;;22.60;51.40;;;;;;5039322;28;20065;-50
2022/08/19 01:09:50;;;;;;;17.35;12.85;;;22.60;51.60;;;;;;5035799;28;20053;-49
2022/08/19 01:12:18;;;;;;;17.00;12.82;;;22.60;51.80;;;;;;5039615;28;20061;-53
2022/08/19 01:14:47;;;;;;;19.88;14.85;;;22.50;51.90;;;;;;5039989;28;20060;-47
2022/08/19 01:17:15;;;;;;;21.00;15.48;;;22.50;51.90;;;;;;5030705;28;20049;-50
2022/08/19 01:19:46;;;;;;;16.90;14.55;;;22.50;52.10;;;;;;5037895;28;20060;-47
2022/08/19 01:22:20;;;;;;;15.68;11.95;;;22.40;52.10;;;;;;5040158;28;20057;-47
2022/08/19 01:24:48;;;;;;;17.58;12.43;;;22.40;52.20;;;;;;5040728;28;20056;-48
2022/08/19 01:27:16;;;;;;;11.88;9.73;;;22.30;52.20;;;;;;5037399;28;20053;-47
2022/08/19 01:29:45;;;;;;;13.00;10.63;;;22.30;52.10;;;;;;5034649;28;20697;-51
2022/08/19 01:32:15;;;;;;;12.23;9.52;;;22.30;52.10;;;;;;5039195;28;20049;-48
2022/08/19 01:34:46;;;;;;;12.90;10.18;;;22.30;52.10;;;;;;5041847;28;20057;-53
2022/08/19 01:37:15;;;;;;;11.95;9.98;;;22.30;52.10;;;;;;5037822;28;20060;-50
2022/08/19 01:39:43;;;;;;;12.13;10.60;;;22.30;52.00;;;;;;5028352;28;20418;-49
2022/08/19 01:42:12;;;;;;;12.40;10.07;;;22.30;52.10;;;;;;5039222;28;20056;-48
2022/08/19 01:44:40;;;;;;;12.77;10.48;;;22.30;52.10;;;;;;5037917;28;20061;-47
2022/08/19 01:47:09;;;;;;;12.48;10.07;;;22.30;52.10;;;;;;5035082;28;20045;-49
2022/08/19 01:49:37;;;;;;;11.65;9.82;;;22.30;52.10;;;;;;5035568;28;20053;-51
2022/08/19 01:52:06;;;;;;;15.77;10.43;;;22.30;52.20;;;;;;5037759;28;20049;-53
2022/08/19 01:54:33;;;;;;;12.18;10.77;;;22.20;52.20;;;;;;5034701;28;20056;-52
2022/08/19 01:57:04;;;;;;;12.57;10.30;;;22.20;52.30;;;;;;5038174;28;20061;-47
2022/08/19 01:59:33;;;;;;;13.57;10.65;;;22.20;52.40;;;;;;5038037;28;20406;-46
2022/08/19 02:02:00;;;;;;;12.43;10.77;;;22.20;52.50;;;;;;5037991;28;20056;-47
2022/08/19 02:04:28;;;;;;;16.42;11.13;;;22.20;52.60;;;;;;5037908;28;20060;-52
2022/08/19 02:06:55;;;;;;;16.25;11.88;;;22.20;52.60;;;;;;5028529;28;20413;-48
2022/08/19 02:09:22;;;;;;;11.85;9.90;;;22.10;52.70;;;;;;5037352;28;20444;-47
2022/08/19 02:11:49;;;;;;;12.65;11.15;;;22.10;52.70;;;;;;5034902;28;20053;-47
2022/08/19 02:14:16;;;;;;;14.15;9.98;;;22.10;52.80;;;;;;5039841;28;20504;-48
2022/08/19 02:16:45;;;;;;;15.30;10.68;;;22.10;52.80;;;;;;5033936;28;20497;-48
2022/08/19 02:19:12;;;;;;;13.07;11.18;;;22.10;52.90;;;;;;5033787;28;20057;-52
2022/08/19 02:21:39;;;;;;;15.13;12.40;;;22.00;52.90;;;;;;5037233;28;20488;-51
2022/08/19 02:24:07;;;;;;;14.00;11.85;;;22.10;53.00;;;;;;5029853;28;20052;-51
2022/08/19 02:26:34;;;;;;;13.13;10.90;;;22.00;53.10;;;;;;5036097;28;20057;-47
2022/08/19 02:29:02;;;;;;;14.45;10.80;;;22.00;53.10;;;;;;5040137;28;20064;-48
2022/08/19 02:31:29;;;;;;;12.50;9.40;;;22.00;53.10;;;;;;5037647;28;20053;-47
2022/08/19 02:33:58;;;;;;;12.32;10.18;;;22.00;53.10;;;;;;5041425;28;20067;-51
2022/08/19 02:36:26;;;;;;;15.10;11.13;;;22.00;53.10;;;;;;5039104;28;20060;-49
2022/08/19 02:38:52;;;;;;;14.02;10.90;;;22.00;53.10;;;;;;5032537;28;20435;-49
2022/08/19 02:41:22;;;;;;;12.10;10.52;;;22.00;53.00;;;;;;5035778;28;20048;-47
2022/08/19 02:43:50;;;;;;;12.18;9.95;;;21.90;53.10;;;;;;5038146;28;20057;-49
2022/08/19 02:46:20;;;;;;;12.80;11.07;;;22.00;53.10;;;;;;5039019;28;20060;-48
2022/08/19 02:48:49;;;;;;;16.38;11.52;;;21.90;53.10;;;;;;5039377;28;20057;-49
2022/08/19 02:51:23;;;;;;;12.25;10.60;;;21.90;53.20;;;;;;5035513;28;20053;-46
2022/08/19 02:53:51;;;;;;;13.73;10.18;;;21.90;53.30;;;;;;5037482;28;20070;-46
2022/08/19 02:56:19;;;;;;;14.77;11.88;;;21.90;53.30;;;;;;5037704;28;20060;-45
2022/08/19 02:58:47;;;;;;;22.85;16.63;;;21.90;53.40;;;;;;5037461;28;20055;-46
2022/08/19 03:01:21;;;;;;;24.23;15.93;;;21.90;53.70;;;;;;5034616;28;20045;-49
2022/08/19 03:03:49;;;;;;;20.50;16.83;;;21.80;53.70;;;;;;5042002;28;20060;-50
2022/08/19 03:06:17;;;;;;;15.50;12.77;;;21.80;53.80;;;;;;5038438;28;20507;-48
2022/08/19 03:08:48;;;;;;;16.60;12.25;;;21.70;53.70;;;;;;5037303;28;20064;-46
2022/08/19 03:11:17;;;;;;;16.02;12.15;;;21.70;53.80;;;;;;5037107;28;20060;-50
2022/08/19 03:13:44;;;;;;;12.38;11.02;;;21.70;53.80;;;;;;5036623;28;20057;-47
2022/08/19 03:16:12;;;;;;;12.65;10.50;;;21.70;54.20;;;;;;5037267;28;20067;-50
2022/08/19 03:18:39;;;;;;;14.23;10.95;;;21.70;53.80;;;;;;5036498;28;20053;-52
2022/08/19 03:21:07;;;;;;;17.17;13.18;;;21.70;53.80;;;;;;5033203;28;20053;-45
2022/08/19 03:23:35;;;;;;;13.45;11.85;;;21.70;53.90;;;;;;5033585;28;20048;-48
2022/08/19 03:26:06;;;;;;;14.38;11.82;;;21.60;53.90;;;;;;5040538;28;20049;-51
2022/08/19 03:28:34;;;;;;;14.45;11.02;;;21.60;53.90;;;;;;5041762;28;20061;-47
2022/08/19 03:31:05;;;;;;;20.67;15.75;;;21.60;53.90;;;;;;5035780;28;20405;-50
2022/08/19 03:33:33;;;;;;;21.52;16.67;;;21.60;54.00;;;;;;5035148;28;20049;-48
2022/08/19 03:36:03;;;;;;;20.75;15.63;;;21.60;54.00;;;;;;5042636;28;20053;-47
2022/08/19 03:38:32;;;;;;;21.85;17.60;;;21.60;54.10;;;;;;5042559;28;20053;-47
2022/08/19 03:41:02;;;;;;;18.60;15.13;;;21.60;54.20;;;;;;5025600;28;20050;-47
2022/08/19 03:43:31;;;;;;;15.90;12.40;;;21.60;54.20;;;;;;5037449;28;20489;-50
2022/08/19 03:46:03;;;;;;;14.82;12.10;;;21.60;54.30;;;;;;5035012;28;20520;-47
2022/08/19 03:48:31;;;;;;;15.60;11.82;;;21.50;54.30;;;;;;5040031;28;20046;-45
2022/08/19 03:50:59;;;;;;;14.88;12.60;;;21.50;54.30;;;;;;5036335;28;20064;-47
2022/08/19 03:53:27;;;;;;;15.18;12.75;;;21.50;54.30;;;;;;5040564;28;20045;-50
2022/08/19 03:55:55;;;;;;;20.42;14.43;;;21.50;54.30;;;;;;5040481;28;20064;-45
2022/08/19 03:58:23;;;;;;;20.15;15.00;;;21.50;54.40;;;;;;5036086;28;20053;-45
2022/08/19 04:00:52;;;;;;;23.23;17.75;;;21.50;54.40;;;;;;5039531;28;20057;-46
2022/08/19 04:03:19;;;;;;;24.38;18.60;;;21.50;54.50;;;;;;5042859;28;20056;-45
2022/08/19 04:05:47;;;;;;;23.67;18.27;;;21.50;54.70;;;;;;5036922;28;20398;-45
2022/08/19 04:08:20;;;;;;;26.00;20.27;;;21.40;54.70;;;;;;5034245;28;20052;-51
2022/08/19 04:10:48;;;;;;;25.02;17.83;;;21.40;54.90;;;;;;5039847;28;20076;-45
2022/08/19 04:13:16;;;;;;;23.98;17.73;;;21.30;54.90;;;;;;5042687;28;20053;-46
2022/08/19 04:15:46;;;;;;;27.42;21.15;;;21.30;55.00;;;;;;5040884;28;20048;-49
2022/08/19 04:18:15;;;;;;;33.75;22.48;;;21.20;55.30;;;;;;5031674;28;20406;-46
2022/08/19 04:20:44;;;;;;;25.20;19.42;;;21.20;55.40;;;;;;5033858;28;20072;-46
2022/08/19 04:23:12;;;;;;;27.08;20.63;;;21.20;55.30;;;;;;5036483;28;20060;-49
2022/08/19 04:25:41;;;;;;;32.63;19.30;;;21.20;55.40;;;;;;5043874;28;20045;-46
2022/08/19 04:28:10;;;;;;;22.13;16.63;;;21.20;55.40;;;;;;5034663;28;20061;-45
2022/08/19 04:30:42;;;;;;;19.60;15.85;;;21.20;55.50;;;;;;5038141;28;20049;-47
2022/08/19 04:33:10;;;;;;;19.15;15.60;;;21.10;55.50;;;;;;5037081;28;20485;-47
2022/08/19 04:35:41;;;;;;;18.60;14.15;;;21.20;55.50;;;;;;5042186;28;20492;-49
2022/08/19 04:38:09;;;;;;;19.17;14.90;;;21.20;55.50;;;;;;5041913;28;20057;-50
2022/08/19 04:43:26;;;;;;;15.75;13.75;;;21.20;55.30;;;;;;5030345;28;20056;-48
2022/08/19 04:45:54;;;;;;;16.83;13.63;;;21.20;55.30;;;;;;5034695;28;20056;-51
2022/08/19 04:48:25;;;;;;;19.30;14.73;;;21.20;55.30;;;;;;5040689;28;20057;-48
2022/08/19 04:50:57;;;;;;;20.80;16.17;;;21.20;55.30;;;;;;5032809;28;20061;-47
2022/08/19 04:53:28;;;;;;;22.10;16.35;;;21.20;55.50;;;;;;5038302;28;20056;-48
2022/08/19 04:55:56;;;;;;;21.17;16.85;;;21.20;55.50;;;;;;5035961;28;20064;-45
2022/08/19 04:58:24;;;;;;;22.60;17.13;;;21.20;55.60;;;;;;5031594;28;20053;-51
2022/08/19 05:00:52;;;;;;;21.02;17.67;;;21.20;56.20;;;;;;5035867;28;20064;-46
2022/08/19 05:03:20;;;;;;;21.98;17.27;;;21.20;55.80;;;;;;5041820;28;20527;-46
2022/08/19 05:05:49;;;;;;;22.70;18.55;;;21.20;55.90;;;;;;5037352;28;20053;-46
2022/08/19 05:08:20;;;;;;;23.88;19.20;;;21.20;55.90;;;;;;5042383;28;20053;-47
2022/08/19 05:10:49;;;;;;;21.50;18.35;;;21.20;56.00;;;;;;5034388;28;20075;-50
2022/08/19 05:13:18;;;;;;;24.15;18.00;;;21.20;56.00;;;;;;5040012;28;20064;-52
2022/08/19 05:15:53;;;;;;;26.75;20.45;;;21.20;56.10;;;;;;5039822;28;20060;-51
2022/08/19 05:23:54;;;;;;;29.85;22.30;;;21.30;56.40;;;;;;5046672;28;20048;-50
2022/08/19 05:26:22;;;;;;;28.92;21.63;;;21.30;56.50;;;;;;5039484;28;20516;-52
2022/08/19 05:28:49;;;;;;;21.58;19.02;;;21.30;56.60;;;;;;5039432;28;20060;-48
2022/08/19 05:31:16;;;;;;;22.75;17.98;;;21.30;56.50;;;;;;5039075;28;20056;-48
2022/08/19 05:33:44;;;;;;;24.08;19.70;;;21.30;56.50;;;;;;5042306;28;20060;-45
2022/08/19 05:36:11;;;;;;;24.17;19.00;;;21.40;56.60;;;;;;5042344;28;20053;-46
2022/08/19 05:38:38;;;;;;;27.08;21.50;;;21.40;56.60;;;;;;5038006;28;20064;-47
2022/08/19 05:41:09;;;;;;;29.67;22.40;;;21.40;56.60;;;;;;5034451;28;20053;-50
2022/08/19 05:43:36;;;;;;;26.08;21.52;;;21.40;56.70;;;;;;5039959;28;20493;-50
2022/08/19 05:46:05;;;;;;;28.33;22.13;;;21.50;56.70;;;;;;5040497;28;20053;-46
2022/08/19 05:48:33;;;;;;;34.13;25.58;;;21.50;56.80;;;;;;5034852;28;20057;-51
2022/08/19 05:51:05;;;;;;;26.05;21.25;;;21.50;56.80;;;;;;5031577;28;20515;-51
2022/08/19 05:53:33;;;;;;;34.40;25.27;;;21.60;56.90;;;;;;5035132;28;20052;-47
2022/08/19 05:56:05;;;;;;;30.15;24.42;;;21.60;56.80;;;;;;5035027;28;20531;-50
2022/08/19 05:58:33;;;;;;;32.47;24.70;;;21.60;56.90;;;;;;5029620;28;20728;-48
2022/08/19 06:01:04;;;;;;;34.22;26.45;;;21.60;57.10;;;;;;5035967;28;20408;-50
2022/08/19 06:03:32;;;;;;;38.67;27.77;;;21.60;57.10;;;;;;5034139;28;20045;-49
2022/08/19 06:06:00;;;;;;;34.03;27.92;;;21.70;57.20;;;;;;5036893;28;20060;-49
2022/08/19 06:08:28;;;;;;;38.00;29.35;;;21.70;57.20;;;;;;5031620;28;20053;-49
2022/08/19 06:10:56;;;;;;;43.90;32.00;;;21.70;57.40;;;;;;5033646;28;20065;-47
2022/08/19 06:13:23;;;;;;;44.25;35.22;;;21.70;57.60;;;;;;5032060;28;20507;-52
2022/08/19 06:15:52;;;;;;;43.45;35.40;;;21.70;57.70;;;;;;5033036;28;20057;-49
2022/08/19 06:18:19;;;;;;;44.97;34.60;;;21.70;57.70;;;;;;5042021;28;20504;-46
2022/08/19 06:20:47;;;;;;;46.90;34.28;;;21.70;57.70;;;;;;5036817;28;20142;-48
2022/08/19 06:23:14;;;;;;;43.15;32.13;;;21.70;57.90;;;;;;5041856;28;20060;-51
2022/08/19 06:25:42;;;;;;;48.20;35.88;;;21.70;57.90;;;;;;5039970;28;20061;-49
2022/08/19 06:28:09;;;;;;;50.97;38.58;;;21.70;58.10;;;;;;5037807;28;20053;-47
2022/08/19 06:30:36;;;;;;;48.35;36.60;;;21.60;58.20;;;;;;5028175;28;20116;-46
2022/08/19 06:33:05;;;;;;;42.88;32.55;;;21.60;58.30;;;;;;5032054;28;20045;-50
2022/08/19 06:35:32;;;;;;;46.00;35.55;;;21.60;58.40;;;;;;5038272;28;20049;-50
2022/08/19 06:37:59;;;;;;;47.97;36.42;;;21.60;58.50;;;;;;5035755;28;20068;-51
2022/08/19 06:40:27;;;;;;;44.20;34.38;;;21.60;58.70;;;;;;5034895;28;20056;-52
2022/08/19 06:42:55;;;;;;;47.83;36.55;;;21.50;59.20;;;;;;5036764;28;20538;-48
2022/08/19 06:45:23;;;;;;;40.80;32.67;;;21.50;58.80;;;;;;5036773;28;21354;-47
2022/08/19 06:47:54;;;;;;;47.65;36.20;;;21.50;58.90;;;;;;5032787;28;20527;-50
2022/08/19 06:50:23;;;;;;;37.95;30.33;;;21.50;59.10;;;;;;5028639;28;20044;-49
2022/08/19 06:52:50;;;;;;;46.33;34.63;;;21.60;59.20;;;;;;5028520;28;20915;-45
2022/08/19 06:55:17;;;;;;;40.53;30.50;;;21.60;59.40;;;;;;5034681;28;20531;-47
2022/08/19 06:57:45;;;;;;;43.83;32.63;;;21.60;59.50;;;;;;5036485;28;20053;-51
2022/08/19 07:00:13;;;;;;;41.63;32.03;;;21.60;59.60;;;;;;5033167;28;20385;-48
2022/08/19 07:02:41;;;;;;;49.70;35.38;;;21.60;59.60;;;;;;5041726;28;20052;-47
2022/08/19 07:05:09;;;;;;;49.97;35.92;;;21.70;59.80;;;;;;5043481;28;20440;-48
2022/08/19 07:07:38;;;;;;;52.08;38.45;;;21.70;59.90;;;;;;5043711;28;20056;-50
2022/08/19 07:10:09;;;;;;;41.03;32.65;;;21.80;60.10;;;;;;5034792;28;20457;-50
2022/08/19 07:12:36;;;;;;;52.55;35.50;;;21.80;60.10;;;;;;5040447;28;20052;-53
2022/08/19 07:15:05;;;;;;;48.85;38.22;;;21.80;60.20;;;;;;5043427;28;20060;-49
2022/08/19 07:17:34;;;;;;;48.85;37.15;;;21.80;61.00;;;;;;5038853;28;20057;-45
2022/08/19 07:20:02;;;;;;;48.25;36.15;;;21.90;60.40;;;;;;5028204;28;20053;-48
2022/08/19 07:22:29;;;;;;;46.65;35.28;;;21.90;60.60;;;;;;5041774;28;20055;-49
2022/08/19 07:24:58;;;;;;;43.50;32.83;;;22.00;60.70;;;;;;5038154;28;20052;-49
2022/08/19 07:27:26;;;;;;;59.63;41.20;;;22.00;60.80;;;;;;5038270;28;20516;-46
2022/08/19 07:29:54;;;;;;;49.78;36.30;;;22.10;60.90;;;;;;5038100;28;20057;-54
2022/08/19 07:32:21;;;;;;;46.45;34.13;;;22.10;61.00;;;;;;5042084;28;20057;-48
2022/08/19 07:34:48;;;;;;;49.50;36.35;;;22.20;61.20;;;;;;5038351;28;20053;-48
2022/08/19 07:37:15;;;;;;;49.67;36.80;;;22.20;61.20;;;;;;5037279;28;20044;-48
2022/08/19 07:39:43;;;;;;;56.20;39.35;;;22.30;61.30;;;;;;5033058;28;20392;-49
2022/08/19 07:42:14;;;;;;;51.15;39.78;;;22.40;61.30;;;;;;5043901;28;20052;-48
2022/08/19 07:44:42;;;;;;;50.08;37.55;;;22.40;60.50;;;;;;5039288;28;20049;-46
2022/08/19 07:47:09;;;;;;;64.35;43.63;;;22.50;60.50;;;;;;5038582;28;20049;-50
2022/08/19 07:49:36;;;;;;;60.65;40.60;;;22.60;60.20;;;;;;5034070;28;20588;-51
2022/08/19 07:52:07;;;;;;;45.85;34.22;;;22.70;59.80;;;;;;5039802;28;20083;-46
2022/08/19 07:54:37;;;;;;;42.40;34.00;;;22.70;59.70;;;;;;5029917;28;20050;-53
2022/08/19 07:57:05;;;;;;;49.13;37.35;;;22.80;59.80;;;;;;5036667;28;20488;-52
2022/08/19 07:59:34;;;;;;;55.72;41.42;;;22.80;59.50;;;;;;5034948;28;20049;-53
2022/08/19 08:02:02;;;;;;;58.42;41.15;;;22.80;59.50;;;;;;5038702;28;20519;-48
2022/08/19 08:10:01;;;;;;;53.58;37.63;;;23.00;59.10;;;;;;5044947;28;20064;-48
2022/08/19 08:12:31;;;;;;;45.63;33.70;;;23.00;59.00;;;;;;5039324;28;20068;-48
2022/08/19 08:15:04;;;;;;;56.92;40.05;;;23.10;58.80;;;;;;5040401;28;20053;-47
2022/08/19 08:17:32;;;;;;;52.30;36.75;;;23.20;58.80;;;;;;5041956;28;20071;-46
2022/08/19 08:19:59;;;;;;;61.63;39.05;;;23.20;58.60;;;;;;5037673;28;20481;-48
2022/08/19 08:25:14;;;;;;;57.55;38.28;;;23.30;57.70;;;;;;5050044;28;20056;-48
2022/08/19 08:27:45;;;;;;;50.50;35.53;;;23.30;57.60;;;;;;5041548;28;20512;-48
2022/08/19 08:30:17;;;;;;;45.38;34.15;;;23.30;57.60;;;;;;5040086;28;20394;-53
2022/08/19 08:32:44;;;;;;;52.08;37.55;;;23.40;57.60;;;;;;5038138;28;20416;-47
2022/08/19 08:35:16;;;;;;;41.92;30.92;;;23.40;57.60;;;;;;5039047;28;20057;-48
2022/08/19 08:37:44;;;;;;;47.80;35.30;;;23.40;57.40;;;;;;5033870;28;20056;-52
2022/08/19 08:40:19;;;;;;;63.17;40.35;;;23.50;57.10;;;;;;5032370;28;20053;-50
2022/08/19 08:42:52;;;;;;;46.00;35.60;;;23.50;56.80;;;;;;5034721;28;20407;-51
2022/08/19 08:45:23;;;;;;;48.60;34.13;;;23.50;57.10;;;;;;5039008;28;20076;-50
2022/08/19 08:51:17;;;;;;;53.53;37.92;;;23.60;56.30;;;;;;5040761;28;20040;-52
2022/08/19 08:53:47;;;;;;;49.22;37.58;;;23.60;55.80;;;;;;5043240;28;20056;-47
2022/08/19 08:56:14;;;;;;;56.15;37.17;;;23.70;55.40;;;;;;5041201;28;20056;-48
2022/08/19 08:58:49;;;;;;;57.70;37.47;;;23.70;55.10;;;;;;5041104;28;20560;-49
2022/08/19 09:01:18;;;;;;;58.22;37.17;;;23.70;55.20;;;;;;5033572;28;20053;-47
2022/08/19 09:03:46;;;;;;;43.65;31.88;;;23.80;54.80;;;;;;5034530;28;20076;-49
2022/08/19 09:06:20;;;;;;;51.72;36.30;;;23.80;55.00;;;;;;5041428;28;20637;-52
2022/08/19 09:08:52;;;;;;;48.97;36.75;;;23.80;54.80;;;;;;5038429;28;20053;-49
2022/08/19 09:11:29;;;;;;;43.33;29.80;;;23.90;54.30;;;;;;5033962;28;20408;-54
2022/08/19 09:14:05;;;;;;;45.58;33.88;;;24.00;54.50;;;;;;5038248;28;20789;-50
2022/08/19 09:16:35;;;;;;;48.58;36.00;;;24.00;54.50;;;;;;5036739;28;20057;-55
2022/08/19 09:19:06;;;;;;;44.75;32.53;;;24.00;54.10;;;;;;5040972;28;20065;-45
2022/08/19 09:21:35;;;;;;;46.38;32.35;;;24.10;54.30;;;;;;5036050;28;20500;-52
2022/08/19 09:24:02;;;;;;;49.50;32.03;;;24.20;54.30;;;;;;5036689;28;20053;-50
2022/08/19 09:26:30;;;;;;;48.47;32.60;;;24.20;54.30;;;;;;5039506;28;20052;-51
2022/08/19 09:28:57;;;;;;;32.88;24.20;;;24.30;53.70;;;;;;5037901;28;20057;-50
2022/08/19 09:31:27;;;;;;;21.52;16.30;;;24.40;53.60;;;;;;5032659;28;20412;-47
2022/08/19 09:33:57;;;;;;;28.38;18.55;;;24.50;53.50;;;;;;5038324;28;20060;-51
2022/08/19 09:36:28;;;;;;;27.05;18.55;;;24.60;52.40;;;;;;5040020;28;20389;-50
2022/08/19 09:38:56;;;;;;;31.92;22.17;;;24.60;52.60;;;;;;5034758;28;20064;-55
2022/08/19 09:41:25;;;;;;;32.75;23.90;;;24.50;51.00;;;;;;5028226;28;20053;-52
2022/08/19 09:43:55;;;;;;;29.42;18.98;;;24.60;50.80;;;;;;5030072;28;20056;-48
2022/08/19 09:46:23;;;;;;;24.85;18.30;;;24.60;51.50;;;;;;5036987;28;20079;-49
2022/08/19 09:48:51;;;;;;;28.73;18.80;;;24.60;51.50;;;;;;5036979;28;20057;-53
2022/08/19 09:51:22;;;;;;;19.25;15.18;;;24.70;51.20;;;;;;5035787;28;20902;-53
2022/08/19 09:53:51;;;;;;;25.58;17.58;;;24.70;51.20;;;;;;5038506;28;20056;-50
2022/08/19 09:56:20;;;;;;;28.50;18.13;;;24.70;50.60;;;;;;5035611;28;20045;-50
2022/08/19 09:58:47;;;;;;;23.52;16.83;;;24.70;50.30;;;;;;5036574;28;20060;-48
2022/08/19 10:01:18;;;;;;;19.00;13.65;;;24.70;50.30;;;;;;5030793;28;20512;-55
2022/08/19 10:03:49;;;;;;;21.00;16.75;;;24.80;50.60;;;;;;5036553;28;20049;-51
2022/08/19 10:06:16;;;;;;;30.45;20.50;;;24.80;50.40;;;;;;5036357;28;20120;-48
2022/08/19 10:08:46;;;;;;;25.73;18.55;;;24.80;50.00;;;;;;5034348;28;20053;-52
2022/08/19 10:11:15;;;;;;;23.10;16.85;;;24.80;50.00;;;;;;5036413;28;20057;-49
2022/08/19 10:13:43;;;;;;;27.00;19.73;;;24.90;50.20;;;;;;5030193;28;20057;-49
2022/08/19 10:16:13;;;;;;;24.20;18.48;;;24.90;50.30;;;;;;5030506;28;20045;-47
2022/08/19 10:18:42;;;;;;;22.20;17.42;;;25.00;50.50;;;;;;5033761;28;20397;-50
2022/08/19 10:21:14;;;;;;;28.10;19.23;;;25.10;50.80;;;;;;5034603;28;20059;-47
2022/08/19 10:23:46;;;;;;;29.90;21.17;;;25.20;50.40;;;;;;5034037;28;20055;-49
2022/08/19 10:26:15;;;;;;;28.67;20.83;;;25.20;50.00;;;;;;5034900;28;20052;-51
2022/08/19 10:28:43;;;;;;;32.97;23.02;;;25.30;50.10;;;;;;5031151;28;20676;-52
2022/08/19 10:31:14;;;;;;;26.20;19.55;;;25.30;49.80;;;;;;5030041;28;20067;-47
2022/08/19 10:33:42;;;;;;;40.72;26.27;;;25.30;49.80;;;;;;5036379;28;20049;-50
2022/08/19 10:36:14;;;;;;;33.78;24.35;;;25.40;49.10;;;;;;5029091;28;20053;-51
2022/08/19 10:38:42;;;;;;;28.95;18.75;;;25.40;49.20;;;;;;5030444;28;20045;-51
2022/08/19 10:41:13;;;;;;;24.23;17.38;;;25.40;49.20;;;;;;5027842;28;20053;-51
2022/08/19 10:43:41;;;;;;;25.45;18.05;;;25.50;49.40;;;;;;5038744;28;20076;-54
2022/08/19 10:46:10;;;;;;;26.75;19.73;;;25.50;49.10;;;;;;5039935;28;20057;-51
2022/08/19 10:48:38;;;;;;;25.25;16.27;;;25.50;48.70;;;;;;5038966;28;20519;-50
2022/08/19 10:53:51;;;;;;;30.10;22.27;;;25.60;48.50;;;;;;5051335;28;20421;-52
2022/08/19 10:59:05;;;;;;;33.08;22.00;;;25.70;48.80;;;;;;5047882;28;20064;-50
2022/08/19 11:01:34;;;;;;;29.35;21.98;;;25.70;48.30;;;;;;5032451;28;20516;-50
2022/08/19 11:04:02;;;;;;;26.02;20.27;;;25.80;48.40;;;;;;5044276;28;20068;-52
2022/08/19 11:06:29;;;;;;;30.95;23.15;;;25.90;48.50;;;;;;5038784;28;20057;-52
2022/08/19 11:08:57;;;;;;;26.17;19.52;;;25.90;48.10;;;;;;5040997;28;20061;-52
2022/08/19 11:11:25;;;;;;;23.88;19.25;;;26.00;47.50;;;;;;5033121;28;20068;-52
2022/08/19 11:13:53;;;;;;;30.85;21.30;;;26.00;47.60;;;;;;5042650;28;20068;-52
2022/08/19 11:16:22;;;;;;;31.52;21.90;;;26.00;47.20;;;;;;5043918;28;20067;-52
2022/08/19 11:18:53;;;;;;;23.95;19.25;;;26.00;46.90;;;;;;5041941;28;20052;-54
2022/08/19 11:21:25;;;;;;;30.58;22.92;;;26.10;46.90;;;;;;5039173;28;20048;-52
2022/08/19 11:23:55;;;;;;;32.38;21.73;;;26.10;46.30;;;;;;5042437;28;20057;-58
2022/08/19 11:26:25;;;;;;;26.13;21.27;;;26.10;46.50;;;;;;5040278;28;20053;-46
2022/08/19 11:28:54;;;;;;;27.02;21.02;;;26.10;45.40;;;;;;5044187;28;20056;-46
2022/08/19 11:31:24;;;;;;;26.13;20.17;;;26.10;46.20;;;;;;5042284;28;20067;-49
2022/08/19 11:33:52;;;;;;;27.17;18.75;;;26.10;45.70;;;;;;5045087;28;20057;-53
2022/08/19 11:36:21;;;;;;;29.63;20.20;;;26.10;45.50;;;;;;5040113;28;20045;-47
2022/08/19 11:38:49;;;;;;;35.92;22.25;;;26.10;45.80;;;;;;5043741;28;20082;-50
2022/08/19 11:41:18;;;;;;;39.50;23.55;;;26.10;45.30;;;;;;5039923;28;20972;-48
2022/08/19 11:43:47;;;;;;;27.60;20.55;;;26.10;45.60;;;;;;5043046;28;20053;-50
2022/08/19 11:46:17;;;;;;;28.77;19.27;;;26.20;45.50;;;;;;5041363;28;20049;-49
2022/08/19 11:48:44;;;;;;;18.25;15.77;;;26.20;45.30;;;;;;5044443;28;20068;-49
2022/08/19 11:51:14;;;;;;;25.10;18.27;;;26.30;45.70;;;;;;5039348;28;20052;-50
2022/08/19 11:53:42;;;;;;;25.85;19.23;;;26.40;44.90;;;;;;5044800;28;20401;-52
2022/08/19 11:56:10;;;;;;;19.58;15.50;;;26.40;44.70;;;;;;5041513;28;20053;-50
2022/08/19 11:58:38;;;;;;;23.52;15.77;;;26.50;44.50;;;;;;5041344;28;20049;-49
2022/08/19 12:01:08;;;;;;;22.65;18.27;;;26.60;45.10;;;;;;5039013;28;20485;-47
2022/08/19 12:03:36;;;;;;;23.13;17.05;;;26.70;44.00;;;;;;5044239;28;20421;-49
2022/08/19 12:06:05;;;;;;;22.17;17.65;;;26.70;43.80;;;;;;5043486;28;20049;-48
2022/08/19 12:08:33;;;;;;;19.75;15.57;;;26.70;44.00;;;;;;5043756;28;20053;-47
2022/08/19 12:11:01;;;;;;;22.55;16.92;;;26.70;43.80;;;;;;5038028;28;20053;-52
2022/08/19 12:13:28;;;;;;;22.70;16.77;;;26.60;44.00;;;;;;5043063;28;20079;-49
2022/08/19 12:15:55;;;;;;;23.92;16.30;;;26.70;44.50;;;;;;5038029;28;20057;-52
2022/08/19 12:18:24;;;;;;;25.92;16.15;;;26.70;43.60;;;;;;5042785;28;20056;-53
2022/08/19 12:20:54;;;;;;;19.95;13.73;;;26.70;42.80;;;;;;5039773;28;20056;-51
2022/08/19 12:23:22;;;;;;;17.60;14.07;;;26.70;43.00;;;;;;5043663;28;20489;-49
2022/08/19 12:25:51;;;;;;;18.17;12.82;;;26.80;42.90;;;;;;5042339;28;20137;-49
2022/08/19 12:28:20;;;;;;;15.73;13.35;;;26.80;42.70;;;;;;5043188;28;20060;-52
2022/08/19 12:30:47;;;;;;;17.40;14.13;;;26.80;42.20;;;;;;5039559;28;20053;-48
2022/08/19 12:33:15;;;;;;;19.15;13.75;;;26.80;42.60;;;;;;5043769;28;20505;-53
2022/08/19 12:35:46;;;;;;;17.45;12.27;;;26.90;42.90;;;;;;5040983;28;20041;-50
2022/08/19 12:38:15;;;;;;;14.10;11.30;;;26.90;43.60;;;;;;5040769;28;20057;-48
2022/08/19 12:40:42;;;;;;;19.52;13.02;;;27.00;43.90;;;;;;5037537;28;20049;-51
2022/08/19 12:43:11;;;;;;;15.98;12.30;;;27.10;43.60;;;;;;5041929;28;20060;-55
2022/08/19 12:45:38;;;;;;;16.95;13.95;;;27.20;43.60;;;;;;5043484;28;20056;-49
2022/08/19 12:48:06;;;;;;;15.23;12.52;;;27.20;42.60;;;;;;5042991;28;20060;-51
2022/08/19 12:50:33;;;;;;;13.40;10.65;;;27.30;41.80;;;;;;5038188;28;20405;-50
2022/08/19 12:53:02;;;;;;;16.58;10.65;;;27.30;41.90;;;;;;5042517;28;20053;-49
2022/08/19 12:55:30;;;;;;;14.82;11.05;;;27.40;41.80;;;;;;5039361;28;20056;-53
2022/08/19 12:57:57;;;;;;;19.52;11.18;;;27.40;42.00;;;;;;5035608;28;20099;-53
2022/08/19 13:00:25;;;;;;;20.88;11.63;;;27.50;41.70;;;;;;5034108;28;20590;-52